Time;durP1;ratioP1;P1;durP2;ratioP2;P2;SDS_P1;SDS_P2;PMS_P1;PMS_P2;Temp;Humidity;BMP_temperature;BMP_pressure;BME280_temperature;BME280_humidity;BME280_pressure;Samples;Min_cycle;Max_cycle;Signal;HPM_P1;HPM_P2
2022/05/09 00:02:04;;;;;;;11.38;5.78;;;;;;;17.26;69.03;98664.75;5460373;26;20062;-77
2022/05/09 00:04:31;;;;;;;14.77;6.40;;;;;;;17.45;67.95;98667.09;5459930;26;20095;-77
2022/05/09 00:06:58;;;;;;;12.85;6.00;;;;;;;17.58;67.25;98665.41;5460274;26;20043;-77
2022/05/09 00:09:25;;;;;;;11.15;5.93;;;;;;;17.28;67.94;98668.09;5460058;26;20129;-77
2022/05/09 00:11:52;;;;;;;14.75;6.50;;;;;;;17.49;67.20;98667.72;5459725;26;20419;-77
2022/05/09 00:14:20;;;;;;;11.82;5.90;;;;;;;17.33;67.11;98670.41;5460100;26;20586;-77
2022/05/09 00:16:47;;;;;;;11.27;5.90;;;;;;;17.32;67.29;98666.13;5460188;26;20042;-77
2022/05/09 00:19:17;;;;;;;13.07;6.45;;;;;;;17.41;67.17;98668.19;5459436;26;20062;-78
2022/05/09 00:21:44;;;;;;;13.43;6.10;;;;;;;17.53;66.90;98666.59;5460241;26;20313;-77
2022/05/09 00:24:15;;;;;;;11.23;5.85;;;;;;;17.54;67.29;98668.25;5439362;26;20147;-77
2022/05/09 00:26:42;;;;;;;12.45;5.93;;;;;;;17.35;68.04;98666.81;5459865;26;20103;-78
2022/05/09 00:29:10;;;;;;;10.73;6.00;;;;;;;17.25;68.41;98664.84;5459894;26;20089;-78
2022/05/09 00:31:39;;;;;;;14.65;6.47;;;;;;;17.17;68.80;98673.13;5460191;26;20102;-78
2022/05/09 00:34:07;;;;;;;12.23;6.05;;;;;;;17.48;68.25;98676.47;5459612;26;20111;-78
2022/05/09 00:36:34;;;;;;;12.05;5.97;;;;;;;17.58;68.38;98669.78;5460129;26;20102;-77
2022/05/09 00:39:02;;;;;;;12.13;5.68;;;;;;;17.41;69.11;98665.56;5459761;26;20113;-77
2022/05/09 00:41:31;;;;;;;12.43;5.87;;;;;;;17.45;68.29;98669.69;5459746;26;20358;-78
2022/05/09 00:44:00;;;;;;;10.70;5.62;;;;;;;17.40;68.49;98668.28;5459917;26;20061;-78
2022/05/09 00:46:28;;;;;;;12.10;6.40;;;;;;;17.64;67.15;98666.78;5459629;26;20050;-78
2022/05/09 00:49:02;;;;;;;13.27;5.78;;;;;;;17.27;68.46;98665.59;5439239;26;20401;-77
2022/05/09 00:51:29;;;;;;;10.45;5.22;;;;;;;17.28;68.49;98662.03;5439679;26;20129;-77
2022/05/09 00:53:58;;;;;;;15.65;6.62;;;;;;;17.64;67.47;98661.56;5459501;26;20388;-77
2022/05/09 00:56:36;;;;;;;10.68;5.07;;;;;;;17.53;68.19;98669.19;5459803;26;20451;-77
2022/05/09 00:59:07;;;;;;;10.73;5.70;;;;;;;17.30;69.18;98666.22;5459743;26;20149;-77
2022/05/09 01:01:36;;;;;;;12.48;6.65;;;;;;;17.03;70.25;98660.06;5459567;26;20059;-78
2022/05/09 01:04:14;;;;;;;11.73;6.00;;;;;;;17.22;69.57;98667.59;5439321;26;20129;-77
2022/05/09 01:06:41;;;;;;;12.27;6.03;;;;;;;17.55;67.59;98673.41;5459994;26;20086;-77
2022/05/09 01:09:10;;;;;;;13.20;6.15;;;;;;;17.68;67.08;98668.28;5459057;26;20479;-77
2022/05/09 01:11:38;;;;;;;13.05;6.03;;;;;;;17.66;66.51;98669.31;5439175;26;20098;-77
2022/05/09 01:14:08;;;;;;;13.15;6.15;;;;;;;17.39;67.72;98667.44;5459999;26;20776;-77
2022/05/09 01:16:36;;;;;;;13.35;5.70;;;;;;;17.15;68.64;98672.38;5438875;26;20118;-77
2022/05/09 01:19:25;;;;;;;13.73;6.12;;;;;;;17.19;68.40;98668.63;5420480;26;20058;-77
2022/05/09 01:21:52;;;;;;;12.10;6.50;;;;;;;17.44;67.27;98674.97;5459501;26;20110;-78
2022/05/09 01:24:21;;;;;;;12.13;6.28;;;;;;;17.28;67.71;98669.88;5459824;26;20125;-77
2022/05/09 01:26:49;;;;;;;11.88;6.68;;;;;;;16.94;69.21;98671.88;5459732;26;20102;-77
2022/05/09 01:29:21;;;;;;;12.90;6.00;;;;;;;16.88;69.45;98674.81;5458994;26;20452;-78
2022/05/09 01:31:49;;;;;;;11.35;6.35;;;;;;;16.78;69.56;98677.13;5439243;26;20425;-77
2022/05/09 01:34:18;;;;;;;12.95;6.60;;;;;;;17.09;68.20;98672.72;5438926;26;20059;-77
2022/05/09 01:36:51;;;;;;;12.70;6.30;;;;;;;17.01;68.29;98677.53;5459402;26;20066;-77
2022/05/09 01:39:17;;;;;;;12.40;6.30;;;;;;;16.84;68.35;98672.50;5460524;26;20126;-77
2022/05/09 01:41:47;;;;;;;13.45;6.45;;;;;;;16.49;69.82;98673.56;5460753;26;20068;-77
2022/05/09 01:44:15;;;;;;;13.93;6.80;;;;;;;16.09;71.34;98672.34;5460472;26;20065;-78
2022/05/09 01:49:29;;;;;;;12.55;6.45;;;;;;;15.76;72.06;98675.03;5460432;26;20071;-78
2022/05/09 01:51:59;;;;;;;11.57;6.18;;;;;;;16.09;71.10;98680.16;5460790;26;20054;-77
2022/05/09 01:54:27;;;;;;;11.30;6.05;;;;;;;16.21;70.91;98681.25;5460821;26;20106;-77
2022/05/09 01:56:54;;;;;;;12.02;6.03;;;;;;;16.40;69.95;98676.69;5460450;26;20101;-78
2022/05/09 01:59:21;;;;;;;12.85;6.68;;;;;;;16.49;69.53;98677.94;5460356;26;20121;-77
2022/05/09 02:01:57;;;;;;;11.57;6.15;;;;;;;16.67;68.96;98676.88;5460851;26;20356;-77
2022/05/09 02:04:24;;;;;;;13.62;6.70;;;;;;;16.65;69.09;98677.88;5460427;26;20051;-78
2022/05/09 02:06:51;;;;;;;13.15;6.35;;;;;;;16.62;69.39;98678.06;5460716;26;20058;-77
2022/05/09 02:09:19;;;;;;;11.68;6.72;;;;;;;16.79;69.00;98683.16;5460398;26;20114;-77
2022/05/09 02:11:46;;;;;;;15.15;6.30;;;;;;;16.86;68.91;98689.72;5459853;26;20136;-78
2022/05/09 02:14:13;;;;;;;11.65;6.45;;;;;;;16.78;69.16;98686.72;5460153;26;20066;-77
2022/05/09 02:16:40;;;;;;;12.70;6.45;;;;;;;16.62;70.00;98683.28;5440128;26;20051;-77
2022/05/09 02:19:08;;;;;;;12.80;6.18;;;;;;;16.74;69.66;98687.81;5460038;26;20059;-78
2022/05/09 02:21:35;;;;;;;12.32;6.30;;;;;;;16.60;70.25;98685.16;5460749;26;20069;-77
2022/05/09 02:24:02;;;;;;;12.15;6.57;;;;;;;16.93;68.67;98685.84;5460998;26;20742;-77
2022/05/09 02:26:30;;;;;;;13.45;6.75;;;;;;;16.59;69.97;98688.66;5462178;26;20046;-77
2022/05/09 02:28:57;;;;;;;10.93;6.00;;;;;;;16.70;69.76;98694.16;5461092;26;20079;-77
2022/05/09 02:31:24;;;;;;;11.07;5.78;;;;;;;16.90;69.65;98700.78;5460575;26;20125;-77
2022/05/09 02:33:51;;;;;;;10.77;5.68;;;;;;;16.58;71.31;98695.63;5439970;26;20055;-78
2022/05/09 02:36:18;;;;;;;12.77;6.12;;;;;;;16.80;71.21;98694.44;5460512;26;20058;-77
2022/05/09 02:38:44;;;;;;;12.18;6.30;;;;;;;16.45;72.57;98686.84;5439430;26;20093;-78
2022/05/09 02:41:11;;;;;;;12.15;6.25;;;;;;;16.44;72.71;98692.97;5460646;26;20110;-78
2022/05/09 02:43:39;;;;;;;13.90;6.82;;;;;;;16.55;72.32;98692.38;5460554;26;20110;-77
2022/05/09 02:46:06;;;;;;;15.80;7.60;;;;;;;16.60;71.60;98699.00;5460139;26;20102;-78
2022/05/09 02:48:35;;;;;;;12.52;6.70;;;;;;;16.78;70.70;98692.75;5460043;26;20063;-77
2022/05/09 02:51:04;;;;;;;13.48;6.50;;;;;;;16.91;69.31;98697.28;5460702;26;20063;-77
2022/05/09 02:53:32;;;;;;;13.73;7.20;;;;;;;16.66;69.83;98697.81;5460201;26;20047;-77
2022/05/09 02:55:59;;;;;;;12.15;6.30;;;;;;;16.34;71.36;98700.47;5460397;26;20436;-77
2022/05/09 02:58:26;;;;;;;11.75;6.00;;;;;;;16.78;70.09;98700.56;5460411;26;20062;-77
2022/05/09 03:00:53;;;;;;;10.55;5.55;;;;;;;16.64;69.99;98708.31;5460239;26;20069;-78
2022/05/09 03:06:06;;;;;;;11.80;6.32;;;;;;;16.27;72.67;98699.13;5460599;26;20043;-77
2022/05/09 03:08:33;;;;;;;12.27;6.82;;;;;;;16.09;73.23;98710.56;5460048;26;20116;-77
2022/05/09 03:11:00;;;;;;;14.20;6.60;;;;;;;15.06;78.26;98707.25;5460643;26;20078;-77
2022/05/09 03:13:27;;;;;;;14.07;7.00;;;;;;;16.14;73.39;98704.16;5439857;26;20065;-77
2022/05/09 03:15:54;;;;;;;12.55;6.50;;;;;;;16.03;73.10;98706.50;5459728;26;20102;-78
2022/05/09 03:18:24;;;;;;;13.50;6.72;;;;;;;15.24;76.72;98716.72;5460402;26;20059;-77
2022/05/09 03:20:51;;;;;;;14.02;6.85;;;;;;;15.00;78.57;98720.56;5460149;26;20113;-78
2022/05/09 03:23:19;;;;;;;16.10;7.30;;;;;;;15.98;74.06;98721.56;5439830;26;20054;-77
2022/05/09 03:25:46;;;;;;;16.27;6.78;;;;;;;15.90;74.44;98718.50;5460470;26;20097;-77
2022/05/09 03:28:21;;;;;;;15.13;6.65;;;;;;;16.04;73.99;98723.81;5460026;26;20430;-78
2022/05/09 03:30:50;;;;;;;15.75;6.28;;;;;;;15.71;75.68;98723.00;5460457;26;20102;-77
2022/05/09 03:33:17;;;;;;;12.37;6.22;;;;;;;15.43;76.67;98721.00;5460455;26;20061;-77
2022/05/09 03:35:44;;;;;;;12.35;6.50;;;;;;;15.90;74.47;98723.72;5439369;26;20102;-78
2022/05/09 03:38:11;;;;;;;12.25;6.80;;;;;;;15.73;75.22;98728.97;5460148;26;20074;-77
2022/05/09 03:40:39;;;;;;;12.93;7.15;;;;;;;15.89;75.48;98729.84;5460353;26;20058;-77
2022/05/09 03:43:06;;;;;;;12.80;6.70;;;;;;;15.85;75.69;98736.16;5459903;26;20102;-78
2022/05/09 03:45:35;;;;;;;13.60;6.85;;;;;;;15.90;75.47;98734.13;5460354;26;20066;-77
2022/05/09 03:48:03;;;;;;;14.55;7.05;;;;;;;15.90;75.30;98728.91;5460215;26;20457;-77
2022/05/09 03:50:30;;;;;;;14.13;6.62;;;;;;;15.90;75.14;98728.91;5459883;26;20121;-77
2022/05/09 03:52:57;;;;;;;13.40;6.78;;;;;;;15.52;76.96;98731.72;5460376;26;20076;-77
2022/05/09 03:55:24;;;;;;;12.23;6.20;;;;;;;15.43;77.48;98727.03;5460251;26;20106;-77
2022/05/09 03:57:55;;;;;;;13.93;6.80;;;;;;;15.49;77.31;98734.50;5459859;26;20134;-77
2022/05/09 04:00:27;;;;;;;12.40;6.95;;;;;;;15.64;77.29;98732.91;5459618;26;20078;-77
2022/05/09 04:02:54;;;;;;;14.57;6.87;;;;;;;15.59;77.73;98730.50;5459924;26;20042;-78
2022/05/09 04:05:21;;;;;;;14.45;7.53;;;;;;;15.68;77.43;98731.81;5460295;26;20361;-78
2022/05/09 04:07:50;;;;;;;12.27;6.65;;;;;;;15.81;77.21;98739.81;5460132;26;20074;-77
2022/05/09 04:10:21;;;;;;;14.48;6.80;;;;;;;15.79;76.88;98737.28;5439289;26;20138;-78
2022/05/09 04:12:48;;;;;;;11.85;6.47;;;;;;;15.86;76.19;98743.03;5460341;26;20046;-77
2022/05/09 04:18:01;;;;;;;15.15;6.72;;;;;;;15.90;76.30;98741.94;5459731;26;20385;-77
2022/05/09 04:20:31;;;;;;;14.15;6.40;;;;;;;16.43;73.93;98746.00;5460119;26;20062;-77
2022/05/09 04:22:59;;;;;;;12.05;6.70;;;;;;;15.51;77.77;98739.62;5460192;26;20332;-77
2022/05/09 04:25:28;;;;;;;12.40;6.55;;;;;;;15.76;77.23;98750.47;5459812;26;20525;-77
2022/05/09 04:27:57;;;;;;;14.00;6.65;;;;;;;15.67;78.01;98742.31;5459904;26;20073;-77
2022/05/09 04:30:25;;;;;;;13.50;7.60;;;;;;;15.45;78.59;98747.75;5460014;26;20058;-77
2022/05/09 04:32:52;;;;;;;14.63;7.18;;;;;;;15.66;78.80;98746.69;5459611;26;20077;-78
2022/05/09 04:35:20;;;;;;;12.45;6.50;;;;;;;15.59;79.21;98748.72;5459966;26;20125;-77
2022/05/09 04:37:49;;;;;;;13.13;6.95;;;;;;;16.00;77.66;98744.88;5459561;26;20059;-78
2022/05/09 04:40:19;;;;;;;13.05;7.12;;;;;;;16.04;78.01;98754.19;5459992;26;20078;-77
2022/05/09 04:42:46;;;;;;;13.75;6.95;;;;;;;16.14;78.05;98758.00;5460031;26;20451;-77
2022/05/09 04:45:14;;;;;;;14.02;7.00;;;;;;;16.36;76.87;98761.09;5439178;26;20073;-78
2022/05/09 04:47:42;;;;;;;12.95;6.57;;;;;;;16.14;77.67;98764.03;5459956;26;20063;-77
2022/05/09 04:50:11;;;;;;;24.70;7.90;;;;;;;16.34;77.28;98764.72;5459919;26;20110;-77
2022/05/09 04:52:38;;;;;;;13.68;7.00;;;;;;;16.47;76.17;98763.97;5459455;26;20111;-78
2022/05/09 04:55:06;;;;;;;12.48;6.60;;;;;;;16.74;75.17;98772.03;5460014;26;20078;-77
2022/05/09 04:57:33;;;;;;;11.80;6.82;;;;;;;16.76;75.33;98777.16;5459730;26;20127;-77
2022/05/09 05:00:01;;;;;;;21.12;7.75;;;;;;;16.92;75.05;98771.94;5459634;26;20125;-78
2022/05/09 05:02:29;;;;;;;14.52;7.30;;;;;;;16.88;75.57;98781.69;5460008;26;20047;-78
2022/05/09 05:04:56;;;;;;;18.45;7.37;;;;;;;16.94;76.09;98786.56;5459896;26;20051;-77
2022/05/09 05:07:23;;;;;;;15.75;7.03;;;;;;;17.20;75.90;98771.19;5459505;26;20055;-78
2022/05/09 05:09:51;;;;;;;12.77;7.12;;;;;;;17.76;74.80;98786.12;5459868;26;20137;-77
2022/05/09 05:12:18;;;;;;;17.52;7.53;;;;;;;18.13;73.35;98787.31;5461949;26;20060;-77
2022/05/09 05:14:44;;;;;;;14.98;7.80;;;;;;;17.79;73.52;98785.94;5462683;26;20102;-78
2022/05/09 05:17:14;;;;;;;13.77;7.40;;;;;;;17.96;72.88;98787.50;5460765;26;20062;-78
2022/05/09 05:19:42;;;;;;;13.77;7.60;;;;;;;17.52;74.37;98788.38;5460871;26;20062;-77
2022/05/09 05:22:15;;;;;;;12.15;6.97;;;;;;;18.15;72.87;98793.28;5460536;26;20110;-78
2022/05/09 05:24:44;;;;;;;15.32;8.38;;;;;;;18.29;73.37;98788.97;5460994;26;20063;-78
2022/05/09 05:27:12;;;;;;;13.57;7.53;;;;;;;18.12;73.19;98788.25;5460426;26;20094;-78
2022/05/09 05:29:41;;;;;;;17.33;7.97;;;;;;;18.91;70.99;98785.00;5460702;26;20071;-78
2022/05/09 05:32:22;;;;;;;17.37;8.38;;;;;;;18.97;70.91;98795.09;5460871;26;20054;-78
2022/05/09 05:34:50;;;;;;;14.25;7.68;;;;;;;19.59;68.75;98792.72;5460411;26;20054;-78
2022/05/09 05:37:17;;;;;;;13.07;7.22;;;;;;;19.85;67.99;98797.94;5460648;26;20059;-78
2022/05/09 05:39:45;;;;;;;13.77;6.80;;;;;;;20.12;67.26;98801.28;5460844;26;20174;-78
2022/05/09 05:42:14;;;;;;;13.02;7.22;;;;;;;20.34;64.78;98798.00;5460292;26;20125;-78
2022/05/09 05:44:41;;;;;;;13.45;6.60;;;;;;;20.36;64.79;98801.34;5460865;26;20062;-78
2022/05/09 05:47:12;;;;;;;12.82;6.72;;;;;;;19.63;68.46;98796.78;5440151;26;20106;-78
2022/05/09 05:49:40;;;;;;;16.35;7.15;;;;;;;19.61;69.19;98808.31;5460407;26;20432;-78
2022/05/09 05:52:08;;;;;;;13.65;7.50;;;;;;;19.48;69.39;98800.44;5460750;26;20129;-78
2022/05/09 05:54:39;;;;;;;14.35;7.00;;;;;;;19.59;67.90;98795.34;5460775;26;20094;-78
2022/05/09 05:57:16;;;;;;;15.48;7.18;;;;;;;19.70;67.97;98799.00;5460317;26;20146;-77
2022/05/09 05:59:50;;;;;;;14.73;8.02;;;;;;;19.63;68.49;98801.19;5460700;26;20055;-79
2022/05/09 06:02:17;;;;;;;13.40;8.20;;;;;;;19.80;66.63;98803.53;5460516;26;20078;-79
2022/05/09 06:04:43;;;;;;;14.00;7.35;;;;;;;20.01;65.28;98800.38;5460688;26;20057;-78
2022/05/09 06:07:12;;;;;;;14.05;6.97;;;;;;;19.98;67.00;98808.41;5460523;26;20054;-79
2022/05/09 06:09:46;;;;;;;13.60;7.53;;;;;;;19.93;68.20;98799.09;5460252;26;20058;-80
2022/05/09 06:12:15;;;;;;;13.68;7.22;;;;;;;20.03;67.66;98801.94;5461014;26;20142;-79
2022/05/09 06:14:42;;;;;;;14.75;7.82;;;;;;;20.41;66.83;98811.50;5460687;26;20427;-79
2022/05/09 06:17:10;;;;;;;15.73;8.77;;;;;;;21.29;63.70;98814.78;5460287;26;20055;-80
2022/05/09 06:19:38;;;;;;;12.88;8.18;;;;;;;21.82;59.53;98818.59;5460542;26;20078;-80
2022/05/09 06:22:05;;;;;;;13.40;8.07;;;;;;;21.99;58.37;98817.28;5460540;26;20065;-80
2022/05/09 06:24:32;;;;;;;15.45;8.45;;;;;;;22.26;58.10;98822.25;5460631;26;20047;-80
2022/05/09 06:26:59;;;;;;;13.68;8.23;;;;;;;22.50;57.36;98816.81;5461872;26;20718;-80
2022/05/09 06:29:26;;;;;;;13.43;8.25;;;;;;;22.33;58.88;98820.81;5465887;26;20431;-80
2022/05/09 06:32:13;;;;;;;17.92;9.68;;;;;;;22.37;59.41;98824.84;5461943;26;20117;-81
2022/05/09 06:34:40;;;;;;;13.35;8.25;;;;;;;22.41;60.29;98830.69;5460657;26;20107;-79
2022/05/09 06:37:08;;;;;;;13.98;7.80;;;;;;;21.90;61.77;98818.00;5459949;26;20143;-81
2022/05/09 06:39:35;;;;;;;13.05;7.80;;;;;;;21.86;63.26;98829.72;5460490;26;20118;-82
2022/05/09 06:42:03;;;;;;;13.73;8.15;;;;;;;21.84;63.00;98834.25;5460748;26;20046;-81
2022/05/09 06:44:30;;;;;;;13.95;8.85;;;;;;;21.92;60.69;98824.81;5460010;26;20039;-82
2022/05/09 06:46:57;;;;;;;13.48;9.13;;;;;;;21.64;61.08;98831.34;5460352;26;20110;-82
2022/05/09 06:49:24;;;;;;;14.65;8.20;;;;;;;21.87;61.03;98832.22;5460405;26;20090;-82
2022/05/09 06:51:51;;;;;;;18.33;8.73;;;;;;;21.92;61.79;98827.47;5460141;26;20110;-83
2022/05/09 06:54:21;;;;;;;17.48;9.35;;;;;;;22.26;61.10;98834.53;5460594;26;20050;-79
2022/05/09 06:56:49;;;;;;;14.10;8.90;;;;;;;21.98;61.57;98827.94;5460463;26;20075;-79
2022/05/09 06:59:19;;;;;;;15.55;9.02;;;;;;;22.19;62.05;98831.56;5439332;26;20109;-80
2022/05/09 07:01:47;;;;;;;13.65;7.80;;;;;;;22.56;61.20;98840.03;5460750;26;20097;-80
2022/05/09 07:04:14;;;;;;;14.18;7.75;;;;;;;22.80;58.07;98834.59;5460638;26;20114;-80
2022/05/09 07:06:41;;;;;;;13.50;7.72;;;;;;;23.17;55.88;98827.19;5460173;26;20071;-82
2022/05/09 07:09:12;;;;;;;12.02;7.43;;;;;;;23.48;54.34;98836.03;5460293;26;20058;-81
2022/05/09 07:11:39;;;;;;;13.23;8.05;;;;;;;23.44;54.57;98832.00;5460775;26;20431;-81
2022/05/09 07:14:07;;;;;;;13.00;7.85;;;;;;;23.58;54.25;98833.47;5460213;26;20457;-81
2022/05/09 07:16:34;;;;;;;12.50;7.57;;;;;;;23.21;55.19;98843.59;5460319;26;20063;-82
2022/05/09 07:19:01;;;;;;;12.80;8.10;;;;;;;23.60;54.80;98836.84;5439982;26;20069;-82
2022/05/09 07:21:28;;;;;;;12.73;7.62;;;;;;;23.63;54.90;98834.78;5460417;26;20411;-81
2022/05/09 07:23:55;;;;;;;13.48;8.70;;;;;;;23.40;54.43;98840.28;5460625;26;20098;-81
2022/05/09 07:26:22;;;;;;;13.45;8.57;;;;;;;22.47;57.27;98844.22;5460245;26;20055;-81
2022/05/09 07:28:49;;;;;;;15.10;7.57;;;;;;;23.12;57.25;98849.59;5460527;26;20072;-81
2022/05/09 07:31:16;;;;;;;13.45;7.62;;;;;;;23.86;52.95;98839.94;5460695;26;20057;-82
2022/05/09 07:33:44;;;;;;;13.30;7.78;;;;;;;24.31;50.45;98848.34;5460391;26;20051;-81
2022/05/09 07:36:11;;;;;;;12.07;7.32;;;;;;;25.54;47.17;98844.41;5460663;26;20059;-82
2022/05/09 07:38:38;;;;;;;11.88;7.15;;;;;;;25.83;44.77;98836.44;5460616;26;20077;-82
2022/05/09 07:41:05;;;;;;;13.40;7.32;;;;;;;26.75;42.72;98841.81;5460433;26;20426;-81
2022/05/09 07:43:32;;;;;;;13.02;6.40;;;;;;;26.63;44.24;98845.66;5460528;26;20066;-82
2022/05/09 07:45:59;;;;;;;11.38;6.62;;;;;;;27.04;39.92;98849.59;5460188;26;20070;-81
2022/05/09 07:48:28;;;;;;;10.80;5.30;;;;;;;27.86;40.51;98850.28;5459840;26;20065;-80
2022/05/09 07:50:56;;;;;;;9.30;5.32;;;;;;;27.50;37.82;98845.03;5460688;26;20144;-80
2022/05/09 07:53:26;;;;;;;11.10;5.80;;;;;;;26.97;39.02;98842.37;5460825;26;20181;-79
2022/05/09 07:55:53;;;;;;;9.75;5.18;;;;;;;26.16;41.30;98842.22;5461497;26;20074;-81
2022/05/09 07:58:21;;;;;;;11.10;5.35;;;;;;;25.48;41.77;98841.50;5462700;26;20090;-80
2022/05/09 08:00:48;;;;;;;9.55;4.85;;;;;;;25.68;41.76;98845.78;5461518;26;20381;-80
2022/05/09 08:03:18;;;;;;;8.48;4.90;;;;;;;25.97;39.73;98843.13;5439574;26;20070;-80
2022/05/09 08:05:46;;;;;;;10.73;5.00;;;;;;;24.88;42.84;98848.66;5460307;26;20068;-80
2022/05/09 08:08:13;;;;;;;8.50;5.00;;;;;;;26.04;40.30;98852.13;5460313;26;20114;-80
2022/05/09 08:10:42;;;;;;;9.27;5.10;;;;;;;26.12;42.35;98849.59;5453488;26;171703;-80
2022/05/09 08:13:11;;;;;;;10.48;5.43;;;;;;;25.42;41.82;98856.13;5460405;26;20094;-80
2022/05/09 08:15:38;;;;;;;10.60;5.15;;;;;;;24.23;44.44;98848.97;5435049;26;20101;-80
2022/05/09 08:18:06;;;;;;;13.57;5.05;;;;;;;25.67;40.31;98852.88;5436680;26;20118;-80
2022/05/09 08:20:35;;;;;;;9.63;4.87;;;;;;;25.98;39.31;98854.53;5436631;26;20468;-79
2022/05/09 08:23:08;;;;;;;10.95;5.22;;;;;;;25.54;42.70;98851.50;5435845;26;20062;-80
2022/05/09 08:25:36;;;;;;;10.57;5.53;;;;;;;25.60;41.97;98849.13;5435656;26;20073;-80
2022/05/09 08:28:05;;;;;;;10.88;5.30;;;;;;;25.72;40.76;98854.28;5436890;26;20115;-81
2022/05/09 08:30:34;;;;;;;9.02;4.82;;;;;;;25.56;42.90;98849.56;5436249;26;20070;-79
2022/05/09 08:33:04;;;;;;;9.48;4.97;;;;;;;24.96;41.66;98846.16;5436656;26;20053;-79
2022/05/09 08:35:31;;;;;;;9.50;4.68;;;;;;;25.81;39.87;98851.63;5436479;26;20106;-80
2022/05/09 08:37:59;;;;;;;9.18;4.78;;;;;;;26.32;39.22;98855.66;5436229;26;20055;-79
2022/05/09 08:41:09;;;;;;;12.25;4.60;;;;;;;27.16;35.61;98855.50;5436826;26;20401;-79
2022/05/09 08:44:08;;;;;;;9.25;4.60;;;;;;;28.05;32.91;98847.44;5436514;26;20043;-80
2022/05/09 08:46:44;;;;;;;9.45;4.57;;;;;;;28.85;32.28;98850.63;5436385;26;20396;-79
2022/05/09 08:49:30;;;;;;;8.93;4.70;;;;;;;29.28;31.31;98854.06;5436938;26;20069;-80
2022/05/09 08:52:07;;;;;;;9.17;4.57;;;;;;;29.79;30.76;98852.94;5437574;26;20427;-79
2022/05/09 08:54:35;;;;;;;23.25;5.97;;;;;;;30.24;30.79;98851.53;5435998;26;20178;-79
2022/05/09 08:57:05;;;;;;;8.50;4.60;;;;;;;30.89;29.64;98863.75;5437606;26;20394;-78
2022/05/09 08:59:47;;;;;;;10.50;4.90;;;;;;;31.09;28.53;98859.63;5435767;26;20104;-79
2022/05/09 09:02:18;;;;;;;9.25;5.15;;;;;;;29.08;33.18;98853.53;5436754;26;20062;-80
2022/05/09 09:04:53;;;;;;;12.63;5.65;;;;;;;28.93;34.19;98855.19;5437350;26;20074;-81
2022/05/09 09:07:55;;;;;;;10.40;6.18;;;;;;;28.19;37.77;98861.97;5437926;26;20118;-79
2022/05/09 09:10:44;;;;;;;10.48;5.60;;;;;;;27.34;37.45;98855.50;5437884;26;20325;-81
2022/05/09 09:13:26;;;;;;;11.93;6.00;;;;;;;27.65;39.16;98854.16;5437425;26;20093;-79
2022/05/09 09:16:16;;;;;;;10.48;5.72;;;;;;;26.48;44.87;98863.00;5450703;26;20603;-80
2022/05/09 09:18:44;;;;;;;10.95;6.10;;;;;;;26.39;42.44;98864.72;5460334;26;20408;-80
2022/05/09 09:21:11;;;;;;;11.18;5.70;;;;;;;25.98;42.07;98851.88;5460677;26;20063;-79
2022/05/09 09:24:15;;;;;;;14.23;6.28;;;;;;;26.56;41.41;98859.59;5461079;26;20120;-81
2022/05/09 09:27:23;;;;;;;10.13;5.70;;;;;;;26.67;42.08;98864.69;5460666;26;20038;-81
2022/05/09 09:29:58;;;;;;;9.75;5.53;;;;;;;27.56;39.13;98864.81;5366463;26;20104;-80
2022/05/09 09:32:25;;;;;;;10.45;5.93;;;;;;;27.84;38.20;98857.56;5348155;26;20080;-80
2022/05/09 09:35:06;;;;;;;10.68;5.32;;;;;;;27.84;39.70;98857.56;5417333;26;20105;-80
2022/05/09 09:37:49;;;;;;;10.75;5.55;;;;;;;27.55;39.96;98866.63;5439713;26;20055;-80
2022/05/09 09:40:16;;;;;;;9.23;5.12;;;;;;;26.16;42.47;98866.03;5458795;26;20126;-80
2022/05/09 09:42:43;;;;;;;9.32;5.47;;;;;;;26.23;41.78;98869.75;5458428;26;20050;-81
2022/05/09 09:45:16;;;;;;;8.65;5.00;;;;;;;25.39;43.81;98859.84;5458814;26;20441;-82
2022/05/09 09:47:43;;;;;;;9.95;5.50;;;;;;;25.79;42.85;98864.16;5438181;26;20074;-81
2022/05/09 09:50:25;;;;;;;10.23;5.55;;;;;;;25.49;44.63;98866.94;5459172;26;20043;-81
2022/05/09 09:52:58;;;;;;;9.13;5.28;;;;;;;25.39;43.68;98862.47;5438308;26;20122;-81
2022/05/09 09:55:27;;;;;;;9.07;5.03;;;;;;;25.68;44.56;98870.41;5460132;26;20110;-81
2022/05/09 09:57:56;;;;;;;9.05;4.75;;;;;;;25.99;41.45;98866.75;5460404;26;20056;-81
2022/05/09 10:00:37;;;;;;;11.18;5.20;;;;;;;26.05;41.87;98871.47;5460795;26;20063;-81
2022/05/09 10:03:20;;;;;;;9.48;5.10;;;;;;;25.56;42.67;98873.34;5437786;26;20442;-80
2022/05/09 10:05:48;;;;;;;10.07;5.10;;;;;;;24.98;44.77;98868.81;5437686;26;20416;-80
2022/05/09 10:08:25;;;;;;;10.68;5.80;;;;;;;24.58;44.28;98873.31;5437054;26;20129;-81
2022/05/09 10:11:02;;;;;;;10.18;5.57;;;;;;;23.87;49.04;98879.31;5417193;26;20062;-80
2022/05/09 10:13:35;;;;;;;12.95;6.25;;;;;;;22.84;50.78;98886.03;5437666;26;20079;-80
2022/05/09 10:16:05;;;;;;;13.73;6.18;;;;;;;22.79;51.81;98891.62;5436647;26;20401;-80
2022/05/09 10:18:33;;;;;;;11.82;6.53;;;;;;;22.22;53.17;98895.25;5437371;26;20515;-81
2022/05/09 10:26:59;;;;;;;9.23;4.05;;;;;;;22.10;49.40;98882.19;5437751;26;20361;-80
2022/05/09 10:29:31;;;;;;;9.68;4.20;;;;;;;22.34;48.32;98884.75;5437072;26;20102;-80
2022/05/09 10:32:03;;;;;;;7.65;4.10;;;;;;;22.15;49.03;98888.78;5437688;26;20058;-80
2022/05/09 10:34:44;;;;;;;10.38;3.70;;;;;;;22.05;49.19;98895.66;5437637;26;20079;-80
2022/05/09 10:37:20;;;;;;;9.85;3.87;;;;;;;21.41;51.59;98905.75;5437462;26;20426;-79
2022/05/09 10:39:55;;;;;;;9.33;3.90;;;;;;;21.24;52.04;98903.47;5438611;26;20123;-80
2022/05/09 10:42:33;;;;;;;10.50;3.70;;;;;;;20.18;56.81;98903.03;5419304;26;20114;-80
2022/05/09 10:45:09;;;;;;;9.85;4.30;;;;;;;19.76;58.83;98912.00;5417991;26;20469;-81
2022/05/09 10:48:09;;;;;;;9.63;4.12;;;;;;;18.56;66.41;98909.25;5416949;26;20114;-80
2022/05/09 10:50:51;;;;;;;12.20;4.60;;;;;;;19.20;63.97;98911.28;5436979;26;20043;-80
2022/05/09 10:53:53;;;;;;;12.00;4.45;;;;;;;19.43;62.70;98901.09;5417747;26;20079;-82
2022/05/09 10:56:29;;;;;;;7.40;3.67;;;;;;;19.83;61.83;98899.34;5417668;26;20078;-81
2022/05/09 10:59:00;;;;;;;7.62;3.90;;;;;;;19.86;61.49;98894.75;5437023;26;20421;-81
2022/05/09 11:01:34;;;;;;;8.43;4.22;;;;;;;19.30;63.09;98898.47;5417043;26;20472;-81
2022/05/09 11:04:01;;;;;;;9.73;4.45;;;;;;;19.34;65.75;98890.28;5437053;26;20405;-81
2022/05/09 11:06:54;;;;;;;7.78;4.15;;;;;;;19.07;67.31;98882.47;5437478;26;20384;-80
2022/05/09 11:09:47;;;;;;;8.30;3.75;;;;;;;18.94;64.97;98880.75;5437164;26;20380;-81
2022/05/09 11:12:39;;;;;;;8.18;3.58;;;;;;;19.39;60.62;98883.94;5437043;26;20070;-81
2022/05/09 11:15:17;;;;;;;7.53;3.58;;;;;;;19.40;62.58;98877.75;5436980;26;20111;-81
2022/05/09 11:18:09;;;;;;;9.75;4.12;;;;;;;19.70;63.69;98873.16;5436943;26;20089;-81
2022/05/09 11:20:43;;;;;;;11.48;4.40;;;;;;;19.49;66.40;98870.16;5437259;26;20055;-82
2022/05/09 11:23:40;;;;;;;10.73;4.60;;;;;;;19.15;69.01;98865.44;5437580;26;20586;-81
2022/05/09 11:26:12;;;;;;;12.18;5.03;;;;;;;18.86;69.85;98862.09;5416782;26;20103;-82
2022/05/09 11:28:52;;;;;;;10.82;5.43;;;;;;;18.82;70.97;98857.97;5437276;26;20086;-82
2022/05/09 11:31:55;;;;;;;10.60;5.20;;;;;;;18.63;72.42;98855.66;5437168;26;20360;-82
2022/05/09 11:34:32;;;;;;;9.90;5.40;;;;;;;19.14;71.73;98862.00;5437152;26;20250;-82
2022/05/09 11:37:02;;;;;;;;;;;;;;;18.65;74.69;98859.03;5437756;26;20055;-81
2022/05/09 11:39:59;;;;;;;12.18;6.30;;;;;;;18.35;79.27;98857.37;5436861;26;19958;-81
2022/05/09 11:45:45;;;;;;;13.95;7.20;;;;;;;18.31;81.98;98857.66;5420165;26;20058;-81
2022/05/09 11:48:34;;;;;;;13.45;7.12;;;;;;;17.93;84.87;98847.75;5437262;26;20122;-81
2022/05/09 11:51:23;;;;;;;17.80;6.57;;;;;;;18.86;80.41;98851.63;5416998;26;20167;-82
2022/05/09 11:53:56;;;;;;;13.10;7.00;;;;;;;19.16;78.12;98848.81;5437058;26;20071;-81
2022/05/09 11:56:24;;;;;;;12.77;6.03;;;;;;;19.36;76.40;98841.34;5437875;26;20091;-81
2022/05/09 11:58:52;;;;;;;13.23;7.25;;;;;;;18.92;78.10;98846.81;5417398;26;20123;-81
2022/05/09 12:01:57;;;;;;;15.85;7.93;;;;;;;17.73;88.55;98838.50;5416614;26;20114;-81
2022/05/09 12:04:35;;;;;;;15.05;8.18;;;;;;;17.96;88.08;98834.50;5437390;26;20110;-82